createdAt,value
2018-08-04T00:00:24.392Z,19.80
2018-08-04T00:02:52.720Z,19.80
2018-08-04T00:05:21.074Z,19.80
2018-08-04T00:07:49.412Z,19.70
2018-08-04T00:10:19.637Z,19.80
2018-08-04T00:15:17.712Z,19.80
2018-08-04T00:17:46.696Z,19.70
2018-08-04T00:20:15.261Z,19.80
2018-08-04T00:22:43.592Z,19.80
2018-08-04T00:25:11.949Z,19.80
2018-08-04T00:27:40.301Z,19.90
2018-08-04T00:30:11.044Z,19.80
2018-08-04T00:32:39.436Z,19.60
2018-08-04T00:35:08.190Z,19.50
2018-08-04T00:37:36.609Z,19.40
2018-08-04T00:40:05.767Z,19.40
2018-08-04T00:42:34.110Z,19.40
2018-08-04T00:45:02.625Z,19.20
2018-08-04T00:47:30.972Z,19.20
2018-08-04T00:49:59.297Z,19.20
2018-08-04T00:52:27.724Z,19.20
2018-08-04T00:54:56.171Z,19.20
2018-08-04T00:57:24.607Z,19.10
2018-08-04T00:59:53.141Z,19.00
2018-08-04T01:02:21.541Z,19.00
2018-08-04T01:04:49.870Z,19.00
2018-08-04T01:07:18.196Z,19.00
2018-08-04T01:09:46.577Z,19.20
2018-08-04T01:12:14.943Z,19.10
2018-08-04T01:14:43.284Z,19.00
2018-08-04T01:17:11.652Z,18.90
2018-08-04T01:19:40.582Z,18.80
2018-08-04T01:22:08.937Z,18.90
2018-08-04T01:24:37.296Z,19.00
2018-08-04T01:27:05.721Z,19.00
2018-08-04T01:29:34.063Z,18.90
2018-08-04T01:32:02.400Z,18.80
2018-08-04T01:34:30.723Z,18.80
2018-08-04T01:36:59.092Z,18.90
2018-08-04T01:39:27.425Z,18.80
2018-08-04T01:41:55.769Z,18.80
2018-08-04T01:44:24.113Z,18.80
2018-08-04T01:46:52.444Z,18.70
2018-08-04T01:49:20.800Z,18.50
2018-08-04T01:51:49.985Z,18.50
2018-08-04T01:54:18.308Z,18.40
2018-08-04T01:56:46.658Z,18.40
2018-08-04T01:59:14.999Z,18.30
2018-08-04T02:01:43.369Z,18.30
2018-08-04T02:04:11.697Z,18.20
2018-08-04T02:06:40.066Z,18.40
2018-08-04T02:09:09.640Z,18.50
2018-08-04T02:11:38.013Z,18.50
2018-08-04T02:14:06.393Z,18.40
2018-08-04T02:16:34.779Z,18.40
2018-08-04T02:19:03.128Z,18.50
2018-08-04T02:21:31.753Z,18.60
2018-08-04T02:24:00.088Z,18.50
2018-08-04T02:26:28.485Z,18.50
2018-08-04T02:28:56.817Z,18.40
2018-08-04T02:31:25.192Z,18.40
2018-08-04T02:33:53.517Z,18.40
2018-08-04T02:36:21.865Z,18.30
2018-08-04T02:38:50.216Z,18.20
2018-08-04T02:41:18.546Z,18.10
2018-08-04T02:43:46.886Z,18.10
2018-08-04T02:46:15.273Z,18.00
2018-08-04T02:48:43.614Z,17.90
2018-08-04T02:51:12.016Z,17.80
2018-08-04T02:53:40.808Z,17.80
2018-08-04T02:56:09.140Z,17.80
2018-08-04T02:58:37.509Z,18.00
2018-08-04T03:01:05.858Z,17.90
2018-08-04T03:03:34.214Z,17.90
2018-08-04T03:06:02.612Z,17.90
2018-08-04T03:08:30.993Z,18.10
2018-08-04T03:10:59.324Z,18.20
2018-08-04T03:13:27.660Z,18.20
2018-08-04T03:15:56.001Z,18.30
2018-08-04T03:18:24.373Z,18.30
2018-08-04T03:20:52.696Z,18.00
2018-08-04T03:23:21.066Z,17.90
2018-08-04T03:25:49.406Z,17.80
2018-08-04T03:28:17.785Z,17.70
2018-08-04T03:30:46.110Z,17.70
2018-08-04T03:33:14.488Z,17.70
2018-08-04T03:35:42.823Z,17.80
2018-08-04T03:38:11.208Z,17.80
2018-08-04T03:40:39.644Z,17.60
2018-08-04T03:43:08.028Z,17.50
2018-08-04T03:45:36.352Z,17.50
2018-08-04T03:48:04.692Z,17.70
2018-08-04T03:50:33.000Z,17.80
2018-08-04T03:53:01.346Z,17.90
2018-08-04T03:55:29.661Z,17.90
2018-08-04T03:57:58.015Z,17.90
2018-08-04T04:00:26.367Z,17.70
2018-08-04T04:02:54.695Z,17.60
2018-08-04T04:05:23.005Z,17.50
2018-08-04T04:07:51.377Z,17.50
2018-08-04T04:10:19.704Z,17.40
2018-08-04T04:12:48.041Z,17.50
2018-08-04T04:15:16.377Z,17.60
2018-08-04T04:17:47.165Z,17.60
2018-08-04T04:20:16.988Z,17.70
2018-08-04T04:22:45.311Z,17.80
2018-08-04T04:25:13.672Z,17.70
2018-08-04T04:27:42.304Z,17.60
2018-08-04T04:30:10.731Z,17.60
2018-08-04T04:32:39.061Z,17.60
2018-08-04T04:35:07.403Z,17.60
2018-08-04T04:37:35.768Z,17.60
2018-08-04T04:42:32.504Z,17.70
2018-08-04T04:45:00.844Z,17.80
2018-08-04T04:47:29.231Z,17.90
2018-08-04T04:49:57.582Z,17.90
2018-08-04T04:52:25.912Z,18.10
2018-08-04T04:54:54.253Z,18.10
2018-08-04T04:57:22.567Z,18.20
2018-08-04T04:59:50.902Z,18.30
2018-08-04T05:02:19.272Z,18.50
2018-08-04T05:04:47.617Z,18.60
2018-08-04T05:07:15.980Z,18.70
2018-08-04T05:09:44.320Z,18.90
2018-08-04T05:12:12.641Z,18.90
2018-08-04T05:14:41.022Z,19.20
2018-08-04T05:17:09.365Z,19.30
2018-08-04T05:19:37.706Z,19.50
2018-08-04T05:22:06.042Z,19.70
2018-08-04T05:24:34.376Z,19.80
2018-08-04T05:27:02.694Z,20.00
2018-08-04T05:29:31.065Z,20.10
2018-08-04T05:31:59.422Z,20.20
2018-08-04T05:34:27.747Z,20.30
2018-08-04T05:36:56.056Z,20.50
2018-08-04T05:39:24.400Z,20.60
2018-08-04T05:41:52.731Z,20.50
2018-08-04T05:44:21.353Z,20.10
2018-08-04T05:46:49.704Z,20.10
2018-08-04T05:49:18.029Z,19.90
2018-08-04T05:51:46.342Z,19.90
2018-08-04T05:54:14.689Z,19.80
2018-08-04T05:56:43.008Z,19.70
2018-08-04T05:59:11.361Z,19.80
2018-08-04T06:01:39.702Z,19.80
2018-08-04T06:06:36.657Z,20.50
2018-08-04T06:09:08.182Z,20.70
2018-08-04T06:11:36.557Z,21.20
2018-08-04T06:14:04.937Z,21.80
2018-08-04T06:16:34.047Z,21.90
2018-08-04T06:19:02.366Z,21.80
2018-08-04T06:21:30.728Z,21.70
2018-08-04T06:26:27.109Z,22.00
2018-08-04T06:28:55.441Z,22.00
2018-08-04T06:31:23.811Z,22.00
2018-08-04T06:33:52.128Z,22.00
2018-08-04T06:36:20.469Z,22.20
2018-08-04T06:38:48.780Z,22.30
2018-08-04T06:41:17.112Z,22.30
2018-08-04T06:43:45.429Z,22.20
2018-08-04T06:46:13.771Z,22.10
2018-08-04T06:48:42.417Z,22.10
2018-08-04T06:51:10.789Z,22.30
2018-08-04T06:53:39.104Z,22.60
2018-08-04T06:56:07.437Z,23.00
2018-08-04T06:58:35.759Z,23.20
2018-08-04T07:01:04.143Z,23.40
2018-08-04T07:03:32.473Z,23.30
2018-08-04T07:06:00.815Z,23.30
2018-08-04T07:08:29.151Z,23.40
2018-08-04T07:10:57.516Z,23.60
2018-08-04T07:13:25.830Z,23.80
2018-08-04T07:15:54.160Z,23.70
2018-08-04T07:18:22.472Z,23.80
2018-08-04T07:20:50.809Z,24.00
2018-08-04T07:23:19.137Z,24.10
2018-08-04T07:25:47.505Z,24.20
2018-08-04T07:28:15.863Z,24.40
2018-08-04T07:30:44.204Z,24.80
2018-08-04T07:33:12.569Z,25.00
2018-08-04T07:35:40.897Z,25.30
2018-08-04T07:38:09.209Z,25.40
2018-08-04T07:40:38.524Z,25.80
2018-08-04T07:43:06.837Z,26.10
2018-08-04T07:45:36.509Z,26.10
2018-08-04T07:48:04.828Z,26.10
2018-08-04T07:50:33.176Z,26.00
2018-08-04T07:53:01.532Z,26.10
2018-08-04T07:55:29.848Z,26.20
2018-08-04T07:57:58.203Z,26.40
2018-08-04T08:00:26.564Z,26.60
2018-08-04T08:02:54.936Z,26.90
2018-08-04T08:05:23.272Z,27.00
2018-08-04T08:07:51.733Z,27.00
2018-08-04T08:10:20.195Z,27.10
2018-08-04T08:12:48.957Z,27.20
2018-08-04T08:15:17.293Z,27.50
2018-08-04T08:17:45.663Z,27.90
2018-08-04T08:20:14.035Z,28.40
2018-08-04T08:22:43.579Z,28.90
2018-08-04T08:25:11.989Z,29.30
2018-08-04T08:27:40.650Z,29.60
2018-08-04T08:30:13.003Z,29.70
2018-08-04T08:32:41.481Z,29.60
2018-08-04T08:35:10.598Z,29.20
2018-08-04T08:37:39.058Z,29.60
2018-08-04T08:40:08.278Z,30.00
2018-08-04T08:42:36.727Z,30.80
2018-08-04T08:45:06.937Z,31.70
2018-08-04T08:47:35.396Z,31.70
2018-08-04T08:50:05.522Z,31.70
2018-08-04T08:52:34.095Z,31.60
2018-08-04T08:55:03.334Z,31.50
2018-08-04T08:57:31.807Z,31.50
2018-08-04T09:00:00.267Z,31.60
2018-08-04T09:02:28.705Z,31.60
2018-08-04T09:04:57.022Z,31.40
2018-08-04T09:07:25.353Z,31.40
2018-08-04T09:09:53.719Z,31.20
2018-08-04T09:12:22.061Z,31.00
2018-08-04T09:14:50.441Z,31.00
2018-08-04T09:17:18.798Z,30.90
2018-08-04T09:19:47.122Z,30.80
2018-08-04T09:22:15.537Z,30.70
2018-08-04T09:24:43.857Z,30.60
2018-08-04T09:27:12.229Z,30.60
2018-08-04T09:29:40.593Z,30.70
2018-08-04T09:32:08.965Z,30.60
2018-08-04T09:34:37.360Z,30.60
2018-08-04T09:37:05.821Z,30.80
2018-08-04T09:39:34.137Z,30.90
2018-08-04T09:42:02.489Z,31.20
2018-08-04T09:44:30.804Z,31.40
2018-08-04T09:46:59.136Z,31.30
2018-08-04T09:49:27.472Z,31.20
2018-08-04T09:51:55.848Z,31.10
2018-08-04T09:54:24.172Z,31.10
2018-08-04T09:56:52.500Z,31.10
2018-08-04T09:59:20.806Z,31.30
2018-08-04T10:04:17.254Z,31.40
2018-08-04T10:06:45.592Z,31.60
2018-08-04T10:09:13.952Z,31.70
2018-08-04T10:11:42.390Z,31.80
2018-08-04T10:14:10.699Z,32.00
2018-08-04T10:16:39.125Z,32.10
2018-08-04T10:19:07.464Z,32.30
2018-08-04T10:21:35.776Z,32.40
2018-08-04T10:24:04.673Z,32.60
2018-08-04T10:26:33.005Z,32.40
2018-08-04T10:29:01.421Z,32.60
2018-08-04T10:31:29.813Z,32.90
2018-08-04T10:33:58.134Z,33.20
2018-08-04T10:36:26.444Z,33.50
2018-08-04T10:38:54.847Z,33.50
2018-08-04T10:41:23.960Z,34.00
2018-08-04T10:43:52.286Z,34.30
2018-08-04T10:46:21.293Z,34.70
2018-08-04T10:48:49.673Z,34.70
2018-08-04T10:51:18.541Z,35.10
2018-08-04T10:53:46.874Z,35.00
2018-08-04T10:56:16.064Z,34.80
2018-08-04T10:58:44.545Z,34.60
2018-08-04T11:01:13.103Z,34.00
2018-08-04T11:03:41.467Z,33.50
2018-08-04T11:06:11.777Z,33.10
2018-08-04T11:08:40.830Z,32.80
2018-08-04T11:13:38.078Z,32.40
2018-08-04T11:16:06.477Z,32.30
2018-08-04T11:18:35.026Z,32.40
2018-08-04T11:21:04.912Z,32.80
2018-08-04T11:23:33.244Z,32.70
2018-08-04T11:26:01.567Z,33.10
2018-08-04T11:28:29.980Z,33.20
2018-08-04T11:30:58.338Z,33.40
2018-08-04T11:33:26.649Z,33.40
2018-08-04T11:35:54.961Z,33.50
2018-08-04T11:38:23.309Z,33.60
2018-08-04T11:40:51.757Z,34.20
2018-08-04T11:43:20.113Z,35.60
2018-08-04T11:45:48.430Z,36.90
2018-08-04T11:48:16.766Z,37.50
2018-08-04T11:50:45.078Z,37.60
2018-08-04T11:53:13.407Z,38.10
2018-08-04T11:55:41.740Z,38.70
2018-08-04T11:58:10.179Z,39.10
2018-08-04T12:00:41.021Z,38.30
2018-08-04T12:03:09.391Z,37.50
2018-08-04T12:05:37.754Z,37.30
2018-08-04T12:08:06.402Z,37.30
2018-08-04T12:10:34.781Z,37.50
2018-08-04T12:13:03.148Z,37.40
2018-08-04T12:15:31.459Z,37.20
2018-08-04T12:17:59.812Z,36.50
2018-08-04T12:20:29.369Z,36.30
2018-08-04T12:22:57.687Z,35.90
2018-08-04T12:25:25.992Z,35.90
2018-08-04T12:27:54.879Z,35.60
2018-08-04T12:30:23.212Z,35.10
2018-08-04T12:32:51.545Z,34.60
2018-08-04T12:35:19.872Z,34.60
2018-08-04T12:37:48.246Z,34.50
2018-08-04T12:40:16.563Z,35.90
2018-08-04T12:42:44.877Z,37.30
2018-08-04T12:45:13.209Z,37.90
2018-08-04T12:47:41.536Z,38.20
2018-08-04T12:50:09.929Z,38.00
2018-08-04T12:52:38.264Z,37.70
2018-08-04T12:55:06.641Z,37.40
2018-08-04T12:57:34.997Z,37.80
2018-08-04T13:00:03.823Z,37.80
2018-08-04T13:02:32.219Z,38.40
2018-08-04T13:05:00.498Z,38.70
2018-08-04T13:07:28.840Z,38.80
2018-08-04T13:09:57.176Z,38.60
2018-08-04T13:12:25.488Z,38.30
2018-08-04T13:14:53.832Z,38.40
2018-08-04T13:17:22.151Z,38.40
2018-08-04T13:19:50.493Z,38.40
2018-08-04T13:22:18.820Z,38.20
2018-08-04T13:24:47.161Z,37.70
2018-08-04T13:29:43.600Z,37.30
2018-08-04T13:32:11.902Z,37.20
2018-08-04T13:34:40.232Z,36.10
2018-08-04T13:37:08.610Z,35.10
2018-08-04T13:39:36.939Z,34.40
2018-08-04T13:42:05.255Z,34.10
2018-08-04T13:44:33.577Z,34.30
2018-08-04T13:47:01.901Z,34.70
2018-08-04T13:49:30.298Z,35.10
2018-08-04T13:51:58.649Z,35.10
2018-08-04T13:54:27.101Z,35.30
2018-08-04T13:56:55.419Z,35.30
2018-08-04T13:59:23.764Z,35.30
2018-08-04T14:01:52.108Z,35.20
2018-08-04T14:04:20.578Z,34.90
2018-08-04T14:06:48.901Z,34.70
2018-08-04T14:09:17.257Z,34.60
2018-08-04T14:11:45.548Z,34.60
2018-08-04T14:14:13.910Z,34.30
2018-08-04T14:16:42.247Z,33.90
2018-08-04T14:19:10.558Z,34.00
2018-08-04T14:21:38.906Z,34.10
2018-08-04T14:24:07.245Z,34.20
2018-08-04T14:26:35.568Z,34.20
2018-08-04T14:29:05.393Z,34.20
2018-08-04T14:31:33.692Z,34.20
2018-08-04T14:34:02.020Z,34.00
2018-08-04T14:36:30.360Z,33.90
2018-08-04T14:38:58.666Z,33.80
2018-08-04T14:41:29.998Z,33.60
2018-08-04T14:43:58.353Z,33.30
2018-08-04T14:46:26.677Z,33.20
2018-08-04T14:48:55.001Z,33.00
2018-08-04T14:51:23.341Z,33.00
2018-08-04T14:53:51.677Z,33.00
2018-08-04T14:56:19.996Z,33.10
2018-08-04T14:58:48.312Z,33.20
2018-08-04T15:01:16.632Z,33.30
2018-08-04T15:03:44.964Z,33.30
2018-08-04T15:06:13.285Z,33.20
2018-08-04T15:08:41.673Z,33.10
2018-08-04T15:11:10.002Z,33.10
2018-08-04T15:13:38.309Z,33.30
2018-08-04T15:16:06.638Z,33.40
2018-08-04T15:18:34.954Z,33.40
2018-08-04T15:21:03.658Z,33.20
2018-08-04T15:23:35.100Z,33.10
2018-08-04T15:26:03.460Z,32.90
2018-08-04T15:28:31.800Z,32.90
2018-08-04T15:31:00.139Z,32.90
2018-08-04T15:33:28.460Z,33.00
2018-08-04T15:35:56.821Z,33.10
2018-08-04T15:38:25.664Z,32.90
2018-08-04T15:40:54.014Z,32.80
2018-08-04T15:43:22.339Z,32.70
2018-08-04T15:45:51.273Z,32.50
2018-08-04T15:48:19.598Z,32.40
2018-08-04T15:50:47.932Z,32.30
2018-08-04T15:53:16.286Z,32.30
2018-08-04T15:55:44.726Z,32.30
2018-08-04T15:58:13.082Z,32.40
2018-08-04T16:00:41.476Z,32.50
2018-08-04T16:03:09.784Z,32.60
2018-08-04T16:05:38.102Z,32.40
2018-08-04T16:08:06.519Z,32.30
2018-08-04T16:10:35.153Z,32.10
2018-08-04T16:13:03.473Z,32.20
2018-08-04T16:15:31.831Z,32.30
2018-08-04T16:18:00.209Z,32.30
2018-08-04T16:20:28.542Z,32.30
2018-08-04T16:22:57.312Z,31.90
2018-08-04T16:25:25.675Z,31.90
2018-08-04T16:27:54.148Z,32.00
2018-08-04T16:30:22.478Z,32.10
2018-08-04T16:32:50.801Z,32.10
2018-08-04T16:35:19.140Z,31.80
2018-08-04T16:37:47.469Z,32.00
2018-08-04T16:40:15.877Z,32.00
2018-08-04T16:42:44.202Z,32.10
2018-08-04T16:45:12.540Z,31.90
2018-08-04T16:47:40.965Z,31.90
2018-08-04T16:50:09.288Z,31.70
2018-08-04T16:52:38.789Z,31.70
2018-08-04T16:55:07.119Z,31.80
2018-08-04T16:57:35.449Z,31.90
2018-08-04T17:00:04.437Z,32.00
2018-08-04T17:02:32.883Z,31.90
2018-08-04T17:05:01.186Z,31.80
2018-08-04T17:07:29.521Z,31.60
2018-08-04T17:09:57.834Z,31.50
2018-08-04T17:12:26.204Z,31.60
2018-08-04T17:14:54.480Z,31.60
2018-08-04T17:17:22.809Z,31.60
2018-08-04T17:19:51.256Z,31.50
2018-08-04T17:22:19.606Z,31.30
2018-08-04T17:24:47.920Z,31.20
2018-08-04T17:27:16.240Z,31.20
2018-08-04T17:29:44.554Z,31.20
2018-08-04T17:32:12.888Z,31.10
2018-08-04T17:37:09.254Z,31.00
2018-08-04T17:39:37.577Z,31.10
2018-08-04T17:42:05.910Z,31.00
2018-08-04T17:44:34.256Z,30.90
2018-08-04T17:47:02.585Z,30.70
2018-08-04T17:49:32.314Z,30.80
2018-08-04T17:52:00.653Z,30.70
2018-08-04T17:54:29.032Z,30.60
2018-08-04T17:56:57.401Z,30.50
2018-08-04T17:59:25.788Z,30.60
2018-08-04T18:01:54.116Z,30.60
2018-08-04T18:04:22.449Z,30.50
2018-08-04T18:06:50.800Z,30.50
2018-08-04T18:09:19.141Z,30.40
2018-08-04T18:11:47.511Z,30.40
2018-08-04T18:14:15.824Z,30.30
2018-08-04T18:16:44.127Z,30.20
2018-08-04T18:19:12.440Z,30.10
2018-08-04T18:21:40.780Z,30.10
2018-08-04T18:24:09.123Z,30.10
2018-08-04T18:26:37.442Z,30.10
2018-08-04T18:29:07.792Z,30.00
2018-08-04T18:31:36.113Z,30.10
2018-08-04T18:34:04.461Z,30.00
2018-08-04T18:36:32.800Z,30.00
2018-08-04T18:39:02.228Z,30.00
2018-08-04T18:41:30.772Z,29.90
2018-08-04T18:43:59.100Z,29.80
2018-08-04T18:46:27.409Z,29.60
2018-08-04T18:48:55.813Z,29.60
2018-08-04T18:51:24.133Z,29.40
2018-08-04T18:53:52.460Z,29.40
2018-08-04T18:56:20.769Z,29.30
2018-08-04T18:58:49.163Z,29.20
2018-08-04T19:01:17.509Z,29.10
2018-08-04T19:03:45.852Z,28.90
2018-08-04T19:06:14.162Z,28.60
2018-08-04T19:08:42.485Z,28.50
2018-08-04T19:11:10.800Z,28.40
2018-08-04T19:13:39.142Z,28.30
2018-08-04T19:16:08.947Z,28.10
2018-08-04T19:18:38.212Z,27.90
2018-08-04T19:21:06.842Z,27.90
2018-08-04T19:23:35.169Z,27.80
2018-08-04T19:26:03.485Z,27.90
2018-08-04T19:28:31.936Z,28.00
2018-08-04T19:31:00.192Z,28.00
2018-08-04T19:33:28.530Z,27.90
2018-08-04T19:35:56.861Z,27.80
2018-08-04T19:39:32.052Z,27.80
2018-08-04T19:42:00.369Z,27.80
2018-08-04T19:44:28.702Z,27.80
2018-08-04T19:46:57.212Z,27.90
2018-08-04T19:49:25.512Z,27.90
2018-08-04T19:51:53.821Z,27.80
2018-08-04T19:54:22.128Z,27.70
2018-08-04T19:56:50.466Z,27.60
2018-08-04T19:59:18.801Z,27.50
2018-08-04T20:01:47.125Z,27.50
2018-08-04T20:04:15.437Z,27.30
2018-08-04T20:06:43.745Z,27.10
2018-08-04T20:09:12.364Z,27.00
2018-08-04T20:11:40.921Z,26.70
2018-08-04T20:14:09.449Z,26.60
2018-08-04T20:16:37.816Z,26.50
2018-08-04T20:19:06.326Z,26.50
2018-08-04T20:21:34.653Z,26.40
2018-08-04T20:24:03.446Z,26.30
2018-08-04T20:26:31.773Z,26.20
2018-08-04T20:29:00.215Z,26.20
2018-08-04T20:31:28.600Z,26.20
2018-08-04T20:33:56.972Z,26.10
2018-08-04T20:36:25.300Z,26.20
2018-08-04T20:38:53.612Z,26.10
2018-08-04T20:41:21.937Z,26.10
2018-08-04T20:43:52.545Z,26.10
2018-08-04T20:46:20.863Z,26.10
2018-08-04T20:48:49.193Z,26.10
2018-08-04T20:51:17.513Z,26.10
2018-08-04T20:53:45.831Z,26.10
2018-08-04T20:56:14.165Z,26.10
2018-08-04T20:58:42.501Z,26.10
2018-08-04T21:01:22.172Z,26.10
2018-08-04T21:03:51.348Z,26.10
2018-08-04T21:06:21.108Z,26.10
2018-08-04T21:08:49.556Z,26.10
2018-08-04T21:11:19.637Z,26.10
2018-08-04T21:13:48.702Z,26.10
2018-08-04T21:16:21.519Z,26.10
2018-08-04T21:18:50.000Z,26.00
2018-08-04T21:21:18.319Z,26.10
2018-08-04T21:23:46.625Z,26.10
2018-08-04T21:26:14.933Z,26.00
2018-08-04T21:28:43.247Z,25.90
2018-08-04T21:31:12.211Z,26.00
2018-08-04T21:33:41.580Z,25.90
2018-08-04T21:36:09.889Z,25.90
2018-08-04T21:38:38.224Z,25.90
2018-08-04T21:41:06.949Z,25.90
2018-08-04T21:43:35.251Z,25.80
2018-08-04T21:46:03.641Z,25.80
2018-08-04T21:48:31.948Z,25.80
2018-08-04T21:51:00.374Z,25.80
2018-08-04T21:53:29.733Z,25.80
2018-08-04T21:55:58.158Z,25.70
2018-08-04T21:58:26.464Z,25.70
2018-08-04T22:01:00.220Z,25.50
2018-08-04T22:03:28.540Z,25.40
2018-08-04T22:05:56.868Z,25.20
2018-08-04T22:08:36.507Z,25.10
2018-08-04T22:11:05.213Z,25.00
2018-08-04T22:13:33.534Z,24.70
2018-08-04T22:16:01.868Z,24.50
2018-08-04T22:18:30.189Z,24.30
2018-08-04T22:20:58.569Z,24.20
2018-08-04T22:23:26.948Z,24.10
2018-08-04T22:25:55.288Z,24.20
2018-08-04T22:28:23.590Z,24.20
2018-08-04T22:30:51.917Z,24.20
2018-08-04T22:33:20.253Z,24.20
2018-08-04T22:35:48.597Z,24.10
2018-08-04T22:40:44.991Z,23.70
2018-08-04T22:43:13.298Z,23.50
2018-08-04T22:46:19.306Z,23.20
2018-08-04T22:48:48.931Z,23.20
2018-08-04T22:51:23.185Z,23.30
2018-08-04T22:53:51.509Z,23.40
2018-08-04T22:56:19.836Z,23.60
2018-08-04T22:58:48.145Z,23.80
2018-08-04T23:01:16.482Z,23.90
2018-08-04T23:06:13.169Z,24.20
2018-08-04T23:11:09.508Z,24.30
2018-08-04T23:13:37.828Z,24.30
2018-08-04T23:16:06.197Z,24.30
2018-08-04T23:18:34.503Z,24.20
2018-08-04T23:21:02.849Z,23.90
2018-08-04T23:23:31.177Z,23.50
2018-08-04T23:25:59.529Z,23.10
2018-08-04T23:28:27.849Z,22.90
2018-08-04T23:30:56.195Z,22.80
2018-08-04T23:33:24.512Z,22.70
2018-08-04T23:35:52.812Z,22.90
2018-08-04T23:38:21.137Z,23.00
2018-08-04T23:40:49.484Z,23.10
2018-08-04T23:43:17.825Z,23.30
2018-08-04T23:45:46.169Z,23.60
2018-08-04T23:48:14.487Z,23.80
2018-08-04T23:50:42.792Z,24.00
2018-08-04T23:53:11.119Z,24.10
2018-08-04T23:55:39.444Z,24.20
2018-08-04T23:58:07.813Z,24.20
